Aitkin, Minnesota
Current Conditions -  °F | °C
As of 8:34 PM on Thursday 20 Nov 2014 (Local Time) from KAIT Reporting Station
Clear Clear  
Wind Chill: -18°   Ceiling: Unl
Heat Index: -18°   Visibility: 10mi
Dew Point: -22°   Wind: 0mph
Humidity: 72%   Direction: NA
Pressure: 30.14"   Gusts: NA
Location:  46.53°N, 93.71°W
Report Text: KAIT 210234Z AUTO 00000KT 10SM CLR M18/M22 A3014 RMK AO2
Loading
Personal Weather Stations






























Interactive Weather Map New forecast layout! Learn more

10-Day Weather Forecast

Advertisements
Track Severe Weather on mobile